createdAt,value
2023-01-13T07:31:56.472Z,90.67
2023-01-13T07:36:58.628Z,90.23
2023-01-13T07:42:19.192Z,89.78
2023-01-13T07:47:23.368Z,89.88
2023-01-13T07:52:25.457Z,89.44
2023-01-13T07:57:27.545Z,89.18
2023-01-13T08:02:29.783Z,88.81
2023-01-13T08:07:32.481Z,88.63
2023-01-13T08:12:56.942Z,88.31
2023-01-13T08:17:59.449Z,87.89
2023-01-13T08:23:01.556Z,87.49
2023-01-13T08:28:04.078Z,87.16
2023-01-13T08:33:08.098Z,86.50
2023-01-13T08:38:10.348Z,86.00
2023-01-13T08:43:12.499Z,85.75
2023-01-13T08:48:14.606Z,85.58
2023-01-13T08:53:16.939Z,85.47
2023-01-13T08:58:19.057Z,85.06
2023-01-13T09:03:21.198Z,85.44
2023-01-13T09:08:23.926Z,85.33
2023-01-13T09:13:26.287Z,85.02
2023-01-13T09:18:28.354Z,84.55
2023-01-13T09:23:30.474Z,84.06
2023-01-13T09:28:33.570Z,85.05
2023-01-13T09:33:54.337Z,84.06
2023-01-13T09:38:56.536Z,84.26
2023-01-13T09:44:01.311Z,83.94
2023-01-13T09:49:04.395Z,84.16
2023-01-13T09:54:16.538Z,85.34
2023-01-13T09:59:18.658Z,85.15
2023-01-13T10:04:20.835Z,85.09
2023-01-13T10:09:52.512Z,85.24
2023-01-13T10:14:56.231Z,85.35
2023-01-13T10:20:08.359Z,85.11
2023-01-13T10:25:36.259Z,84.97
2023-01-13T10:30:41.312Z,85.74
2023-01-13T10:35:56.891Z,84.71
2023-01-13T10:41:01.509Z,84.76
2023-01-13T10:46:10.996Z,85.24
2023-01-13T10:51:24.094Z,85.88
2023-01-13T10:56:30.651Z,85.41
2023-01-13T11:01:32.935Z,84.96
2023-01-13T11:06:35.488Z,85.34
2023-01-13T11:11:42.600Z,85.10
2023-01-13T11:16:53.662Z,84.63
2023-01-13T11:22:07.526Z,85.41
2023-01-13T11:27:21.245Z,85.90
2023-01-13T11:32:24.666Z,86.27
2023-01-13T11:37:30.727Z,85.81
2023-01-13T11:42:42.337Z,85.40
2023-01-13T11:47:51.211Z,85.46
2023-01-13T11:53:22.797Z,86.00
2023-01-13T11:58:33.746Z,85.94
2023-01-13T12:03:51.421Z,85.00
2023-01-13T12:09:02.527Z,85.42
2023-01-13T12:14:46.711Z,85.28
2023-01-13T12:19:50.735Z,84.97
2023-01-13T12:25:14.333Z,85.00
2023-01-13T12:30:19.433Z,85.11
2023-01-13T12:35:40.032Z,85.13
2023-01-13T12:40:54.461Z,85.53
2023-01-13T12:46:19.309Z,85.64
2023-01-13T12:51:36.767Z,85.14
2023-01-13T12:56:45.619Z,84.78
2023-01-13T13:01:50.641Z,84.86
2023-01-13T13:07:10.383Z,85.39
2023-01-13T13:12:49.416Z,85.10
2023-01-13T13:18:16.925Z,84.78
2023-01-13T13:23:28.304Z,84.80
2023-01-13T13:28:37.151Z,84.91
2023-01-13T13:33:49.818Z,84.99
2023-01-13T13:39:44.612Z,85.07
2023-01-13T13:45:06.518Z,85.32
2023-01-13T13:50:14.709Z,86.66
2023-01-13T13:55:20.203Z,86.56
2023-01-13T14:00:24.384Z,86.11
2023-01-13T14:05:31.679Z,86.36
2023-01-13T14:10:37.788Z,86.37
2023-01-13T14:15:41.127Z,86.53
2023-01-13T14:20:44.019Z,86.37
2023-01-13T14:25:48.153Z,86.40
2023-01-13T14:30:51.771Z,86.67
2023-01-13T14:36:06.033Z,86.69
2023-01-13T14:41:27.576Z,87.17
2023-01-13T14:46:43.334Z,87.02
2023-01-13T14:51:45.580Z,87.13
2023-01-13T14:56:53.807Z,87.11
2023-01-13T15:01:55.990Z,87.27
2023-01-13T15:06:59.634Z,87.98
2023-01-13T15:12:16.792Z,87.85
2023-01-13T15:17:18.939Z,88.25
2023-01-13T15:22:21.464Z,88.55
2023-01-13T15:27:26.290Z,88.74
2023-01-13T15:32:28.371Z,89.35
2023-01-13T15:37:30.423Z,89.49
2023-01-13T15:42:50.860Z,89.61
2023-01-13T15:47:52.900Z,89.47
2023-01-13T15:52:54.961Z,89.71
2023-01-13T15:57:57.076Z,90.41
2023-01-13T16:02:59.965Z,90.43
2023-01-13T16:08:02.123Z,88.97
2023-01-13T16:13:04.204Z,88.79
2023-01-13T16:18:06.301Z,88.82
2023-01-13T16:23:08.730Z,88.67
2023-01-13T16:28:22.766Z,88.83
2023-01-13T16:33:25.191Z,88.91
2023-01-13T16:38:27.325Z,88.59
2023-01-13T16:43:29.377Z,88.63
2023-01-13T16:48:31.425Z,88.50
2023-01-13T16:53:33.500Z,88.63
2023-01-13T16:58:35.657Z,88.44
2023-01-13T17:03:38.357Z,88.20
2023-01-13T17:08:40.528Z,88.12
2023-01-13T17:13:42.619Z,88.10
2023-01-13T17:18:45.071Z,87.96
2023-01-13T17:23:47.745Z,87.81
2023-01-13T17:28:49.854Z,87.69
2023-01-13T17:33:51.987Z,87.75
2023-01-13T17:38:55.617Z,87.78
2023-01-13T17:43:57.712Z,87.62
2023-01-13T17:48:59.781Z,87.78
2023-01-13T17:54:01.921Z,87.76
2023-01-13T17:59:04.386Z,87.74
2023-01-13T18:04:07.020Z,87.70
2023-01-13T18:09:09.121Z,87.65
2023-01-13T18:14:12.348Z,87.73
2023-01-13T18:19:33.112Z,87.57
2023-01-13T18:24:53.951Z,87.46
2023-01-13T18:29:58.710Z,87.36
2023-01-13T18:35:06.683Z,87.36
2023-01-13T18:40:12.044Z,87.47
2023-01-13T18:45:14.195Z,87.21
2023-01-13T18:50:17.504Z,87.12
2023-01-13T18:55:20.647Z,87.19
2023-01-13T19:00:23.095Z,87.14
2023-01-13T19:05:25.269Z,87.01
2023-01-13T19:10:31.877Z,86.85
2023-01-13T19:15:36.671Z,86.70
2023-01-13T19:20:38.844Z,87.11
2023-01-13T19:25:41.673Z,87.08
2023-01-13T19:30:43.785Z,87.04
2023-01-13T19:35:46.052Z,86.89
2023-01-13T19:40:55.673Z,86.80
2023-01-13T19:45:57.805Z,86.79
2023-01-13T19:51:00.794Z,86.73
2023-01-13T19:56:02.944Z,86.97
2023-01-13T20:01:09.782Z,87.13
2023-01-13T20:06:13.977Z,87.14
2023-01-13T20:11:21.923Z,87.11
2023-01-13T20:16:24.455Z,86.98
2023-01-13T20:21:26.579Z,87.10
2023-01-13T20:26:28.693Z,87.31
2023-01-13T20:31:30.813Z,87.79
2023-01-13T20:36:37.333Z,87.72
2023-01-13T20:41:58.175Z,87.88
2023-01-13T20:47:00.548Z,88.13
2023-01-13T20:52:05.691Z,88.05
2023-01-13T20:57:10.076Z,88.29
2023-01-13T21:02:14.688Z,88.64
2023-01-13T21:07:16.991Z,88.77
2023-01-13T21:12:37.235Z,88.52
2023-01-13T21:17:58.127Z,88.69
2023-01-13T21:23:02.196Z,88.91
2023-01-13T21:28:09.510Z,89.26
2023-01-13T21:33:14.111Z,89.35
2023-01-13T21:38:16.299Z,89.56
2023-01-13T21:43:36.803Z,89.82
2023-01-13T21:48:38.889Z,90.12
2023-01-13T21:53:40.945Z,90.42
2023-01-13T21:58:43.072Z,90.66
2023-01-13T22:04:04.142Z,91.12
2023-01-13T22:09:06.968Z,91.55
2023-01-13T22:14:10.049Z,91.70
